Flight Track Log - Related Links

Times and Time Zones

All times are in EDT time to prevent confusion due to time zone crossing. See the ASQ5678 flight status page for this flight to view local times or setup timezone preferences in your user account.

Time Position Orientation Groundspeed Altitude Reporting Facility
EDT Latitude Longitude Course Direction KTS MPH feet Rate Location/Type
Mon 08:51:49 AM 42.9525 -87.8578 180° South 171 197 1,900  Level Chicago Center
Mon 08:52:51 AM 42.9219 -87.8200 138° Southeast 229 264 3,800 2,129 Climbing Chicago Center
Mon 08:53:53 AM 42.8761 -87.9050 234° Southwest 244 281 6,300 2,419 Climbing Chicago Center
Mon 08:54:00 AM 42.6570 -88.0986 180° South  Level Estimated
Mon 08:54:55 AM 42.8339 -87.9922 237° Southwest 268 308 8,800  Level Chicago Center
Mon 08:55:00 AM 42.5603 -88.1654 180° South  Level Estimated
Mon 08:55:57 AM 42.7661 -88.0242 199° South 272 313 11,300  Level Chicago Center
Mon 08:56:00 AM 42.4636 -88.2320 185° South  Level Estimated
Mon 08:56:59 AM 42.6850 -88.0247 180° South 288 331 13,400  Level Chicago Center
Mon 08:57:00 AM 42.3668 -88.2983 180° South  Level Estimated
Mon 08:58:01 AM 42.6003 -88.0242 180° South 300 345 15,200  Level Chicago Center
Mon 08:59:03 AM 42.5114 -88.0228 179° South 316 364 17,000 1,742 Climbing Chicago Center
Mon 09:01:07 AM 42.3083 -88.0228 180° South 338 389 20,600 1,645 Climbing Chicago Center
Mon 09:02:09 AM 42.2131 -88.0228 180° South 343 395 22,100 1,500 Climbing Chicago Center
Mon 09:03:11 AM 42.1144 -88.0217 180° South 354 407 23,700 1,500 Climbing Chicago Center
Mon 09:04:13 AM 42.0158 -88.0219 180° South 356 410 25,200 1,452 Climbing Chicago Center
Mon 09:05:15 AM 41.9167 -88.0206 179° South 357 411 26,700 1,500 Climbing Chicago Center
Mon 09:07:01 AM 41.7306 -88.0425 185° South 361 415 29,400 1,548 Climbing Kansas City Center
Mon 09:07:19 AM 41.7003 -88.0456 184° South 354 407 29,900 1,425 Climbing Chicago Center
Mon 09:08:21 AM 41.6042 -88.0558 185° South 348 400 31,300 1,355 Climbing Chicago Center
Mon 09:09:23 AM 41.5008 -88.0667 184° South 345 397 32,700 1,084 Climbing Chicago Center
Mon 09:11:07 AM 41.3481 -88.0831 185° South 340 391 34,300 968 Climbing Kansas City Center
Mon 09:11:27 AM 41.3103 -88.0881 186° South 343 395 34,700 512 Climbing Chicago Center
Mon 09:12:29 AM 41.2219 -88.1392 204° Southwest 356 410 35,000 194 Climbing Chicago Center
Mon 09:13:31 AM 41.1283 -88.2036 207° Southwest 373 429 35,100 484 Climbing Chicago Center
Mon 09:14:33 AM 41.0139 -88.2803 207° Southwest 383 441 36,000 435 Climbing Chicago Center
Mon 09:15:35 AM 40.9178 -88.3461 207° Southwest 389 448 36,000  Level Chicago Center
Mon 09:16:37 AM 40.8161 -88.4147 207° Southwest 407 468 36,000  Level Chicago Center
Mon 09:18:18 AM 40.6375 -88.5344 207° Southwest 431 496 36,000  Level Kansas City Center
Mon 09:18:41 AM 40.6014 -88.5597 208° Southwest 437 503 36,000  Level Chicago Center
Mon 09:20:45 AM 40.3656 -88.6961 204° Southwest 451 519 36,000  Level Chicago Center
Mon 09:21:47 AM 40.2503 -88.7569 202° Southwest 446 513 36,000  Level Chicago Center
Mon 09:23:26 AM 40.0397 -88.8692 202° Southwest 447 514 36,000  Level Kansas City Center
Mon 09:25:56 AM 39.7633 -89.0136 202° Southwest 450 518 36,000  Level Chicago Center
Mon 09:26:32 AM 39.6917 -89.0525 203° Southwest 449 517 36,000  Level Kansas City Center
Mon 09:27:33 AM 39.5731 -89.1117 201° Southwest 453 521 36,000  Level Kansas City Center
Mon 09:28:35 AM 39.4539 -89.1750 202° Southwest 459 528 36,000  Level Kansas City Center
Mon 09:29:37 AM 39.3147 -89.2472 202° Southwest 463 533 36,000  Level Kansas City Center
Mon 09:30:39 AM 39.1942 -89.3094 202° Southwest 466 536 36,000  Level Kansas City Center
Mon 09:32:42 AM 38.9400 -89.4406 202° Southwest 469 540 36,000  Level Kansas City Center
Mon 09:33:44 AM 38.8194 -89.5022 202° Southwest 467 537 36,000  Level Kansas City Center
Mon 09:34:46 AM 38.6978 -89.5647 202° Southwest 470 541 36,000  Level Kansas City Center
Mon 09:35:47 AM 38.5664 -89.6317 202° Southwest 470 541 36,000  Level Kansas City Center
Mon 09:36:49 AM 38.4639 -89.6817 201° Southwest 474 545 36,000  Level Kansas City Center
Mon 09:38:53 AM 38.1922 -89.8172 201° Southwest 474 545 36,000  Level Kansas City Center
Mon 09:39:55 AM 38.0611 -89.8831 202° Southwest 479 551 36,000  Level Kansas City Center
Mon 09:40:56 AM 37.9389 -89.9433 201° Southwest 475 547 36,000  Level Kansas City Center
Mon 09:43:00 AM 37.7198 -90.0449 200° South  Level FlightAware Approximate
Mon 09:43:44 AM 37.5900 -90.1239 200° South 476 548 36,000  Level Memphis Center
Mon 09:44:44 AM 37.4692 -90.1844 202° Southwest 476 548 36,000  Level Memphis Center
Mon 09:45:04 AM 37.4506 -90.1878 188° South 478 550 36,000  Level Kansas City Center
Mon 09:45:44 AM 37.3422 -90.2447 203° Southwest 476 548 36,000  Level Memphis Center
Mon 09:46:44 AM 37.2194 -90.3047 201° Southwest 481 554 36,000  Level Memphis Center
Mon 09:47:44 AM 37.0964 -90.3647 201° Southwest 476 548 36,000  Level Memphis Center
Mon 09:49:44 AM 36.8486 -90.4839 201° Southwest 476 548 36,000  Level Memphis Center
Mon 09:50:44 AM 36.7233 -90.5433 201° Southwest 476 548 36,000  Level Memphis Center
Mon 09:52:00 AM 36.5891 -90.6049 200° South  Level FlightAware Approximate
Mon 09:53:19 AM 36.4050 -90.6894 200° South 481 554 36,000  Level Kansas City Center
Mon 09:53:44 AM 36.3500 -90.7178 203° Southwest 476 548 36,000  Level Memphis Center
Mon 09:55:22 AM 36.1553 -90.8083 201° Southwest 481 554 36,000  Level Kansas City Center
Mon 09:55:44 AM 36.0972 -90.8375 202° Southwest 476 548 36,000  Level Memphis Center
Mon 09:56:44 AM 35.9697 -90.8878 198° South 481 554 36,000  Level Memphis Center
Mon 09:58:00 AM 35.8500 -90.9844 213° Southwest  Level Estimated
Mon 09:59:00 AM 35.8470 -90.9416 200° South  Level FlightAware Approximate
Mon 09:59:44 AM 35.5944 -90.9264 202° Southwest 463 533 36,000  Level Memphis Center
Mon 10:00:44 AM 35.4731 -90.9867 202° Southwest 458 527 36,000  Level Memphis Center
Mon 10:01:44 AM 35.3581 -91.0469 203° Southwest 464 534 36,000  Level Memphis Center
Mon 10:02:44 AM 35.2347 -91.1094 202° Southwest 472 543 36,000  Level Memphis Center
Mon 10:03:44 AM 35.1175 -91.1669 202° Southwest 472 543 36,000  Level Memphis Center
Mon 10:04:44 AM 34.9961 -91.2267 202° Southwest 472 543 36,000  Level Memphis Center
Mon 10:05:00 AM 35.1385 -91.1892 202° Southwest  Level FlightAware Approximate
Mon 10:05:44 AM 34.8744 -91.2886 203° Southwest 467 537 36,000  Level Memphis Center
Mon 10:06:44 AM 34.7531 -91.3506 203° Southwest 474 545 36,000  Level Memphis Center
Mon 10:08:00 AM 34.6112 -91.3861 202° Southwest  Level FlightAware Approximate
Mon 10:08:44 AM 34.4975 -91.4761 202° Southwest 474 545 36,000  Level Memphis Center
Mon 10:09:44 AM 34.3781 -91.5322 201° Southwest 474 545 36,000  Level Memphis Center
Mon 10:10:44 AM 34.2564 -91.5911 202° Southwest 474 545 36,000  Level Memphis Center
Mon 10:11:44 AM 34.1347 -91.6494 202° Southwest 468 539 36,000  Level Memphis Center
Mon 10:14:00 AM 33.9838 -91.6915 203° Southwest  Level FlightAware Approximate
Mon 10:14:39 AM 33.7981 -91.8150 203° Southwest 464 534 36,000  Level Fort Worth Center
Mon 10:16:00 AM 33.6474 -91.8596 203° Southwest  Level FlightAware Approximate
Mon 10:16:39 AM 33.5672 -91.9269 203° Southwest 464 534 36,000  Level Fort Worth Center
Mon 10:18:00 AM 33.4199 -91.9766 196° South  Level FlightAware Approximate
Mon 10:19:39 AM 33.2197 -92.0925 202° Southwest 451 519 36,000  Level Fort Worth Center
Mon 10:21:00 AM 33.1049 -92.2133 221° Southwest  Level Estimated
Mon 10:21:39 AM 32.9883 -92.2003 221° Southwest 446 513 36,000  Level Fort Worth Center
Mon 10:23:00 AM 32.8457 -92.2663 201° Southwest  Level FlightAware Approximate
Mon 10:23:43 AM 32.7542 -92.3100 201° Southwest 448 516 36,000  Level Houston Center
Mon 10:25:00 AM 32.6827 -92.3304 202° Southwest  Level FlightAware Approximate
Mon 10:25:00 AM 32.6097 -92.3669 202° Southwest  Level FlightAware Approximate
Mon 10:25:47 AM 32.5133 -92.4264 202° Southwest 446 513 36,000  Level Houston Center
Mon 10:26:49 AM 32.3978 -92.4800 201° Southwest 447 514 36,000  Level Houston Center
Mon 10:28:00 AM 32.2726 -92.5335 200° South  Level FlightAware Approximate
Mon 10:28:54 AM 32.1453 -92.5994 200° South 448 516 36,000  Level Houston Center
Mon 10:29:56 AM 32.0306 -92.6514 201° Southwest 445 512 36,000  Level Houston Center
Mon 10:31:00 AM 31.9238 -92.7086 220° Southwest  Level FlightAware Approximate
Mon 10:36:08 AM 31.4650 -93.1678 217° Southwest 414 476 36,000  Level Houston Center
Mon 10:38:00 AM 31.3170 -93.2980 218° Southwest  Level FlightAware Approximate
Mon 10:38:13 AM 31.2819 -93.3425 219° Southwest 417 480 36,000  Level Houston Center
Mon 10:39:00 AM 31.2277 -93.3781 218° Southwest  Level FlightAware Approximate
Mon 10:40:00 AM 31.1384 -93.4581 217° Southwest  Level FlightAware Approximate
Mon 10:40:17 AM 31.0394 -93.4372 199° South 460 529 35,000  Level Houston Center
Mon 10:41:00 AM 31.0490 -93.5379 217° Southwest  Level FlightAware Approximate
Mon 10:41:19 AM 30.9081 -93.4458 183° South 470 541 32,900  Level Houston Center
Mon 10:42:21 AM 30.7928 -93.4942 200° South 446 513 30,500 -2,516 Descending Houston Center
Mon 10:44:25 AM 30.6483 -93.6992 231° Southwest 416 479 25,100 -2,624 Descending Houston Center
Mon 10:46:00 AM 30.5709 -93.8945 245° Southwest  Level Estimated
Mon 10:47:32 AM 30.4236 -94.0317 245° Southwest 380 437 16,900  Level Houston Center
Mon 10:48:27 AM 30.3667 -94.1144 231° Southwest 370 426 15,100 -2,000 Descending Houston Center
Mon 10:49:29 AM 30.3008 -94.2131 232° Southwest 368 423 13,000 -1,420 Descending Houston Center
Mon 10:50:38 AM 30.2331 -94.3128 232° Southwest 359 413 12,000 -683 Descending Houston Center
Mon 10:51:32 AM 30.1847 -94.3978 237° Southwest 319 367 11,600 -1,017 Descending Houston Center
Mon 10:53:00 AM 30.2251 -94.7544 245° Southwest  Level Estimated
Mon 10:53:00 AM 30.1464 -94.5695 263° West  Level FlightAware Approximate
Mon 10:53:35 AM 30.1200 -94.5731 263° West 274 315 9,000  Level Houston Center
Mon 10:54:47 AM 30.0847 -94.6681 247° West 276 318 8,000 -652 Descending Houston Center
Mon 10:56:00 AM 30.1057 -94.8656 259° West  Level FlightAware Approximate
Mon 10:56:39 AM 30.0283 -94.8214 259° West 268 308 7,000  Level Houston Center
Mon 10:57:40 AM 30.0022 -94.8994 249° West 269 310 7,000 -397 Level Houston Center
Mon 10:58:55 AM 29.9942 -94.9836 264° West 237 273 6,100 -1,070 Descending Houston Center
Mon 10:59:49 AM 29.9922 -95.0600 268° West 226 260 4,700 -1,355 Descending Houston Center
Mon 11:00:59 AM 29.9939 -95.1386 271° West 219 252 3,300 -1,145 Descending Houston Center
Mon 11:01:39 AM 29.9933 -95.1853 269° West 199 229 2,600 -960 Descending Houston Center
Mon 11:03:04 AM 29.9936 -95.2589 270° West 195 224 1,300 -857 Descending Houston Center
Mon 11:04:06 AM 29.9942 -95.3036 271° West 167 192 500 -774 Descending Houston Center

Login

Don't have an account? Register now (free) for customized features, flight alerts, and more!